createdAt,value
2018-06-28T12:37:09.531Z,85.53
2018-06-28T12:39:37.917Z,82.90
2018-06-28T12:42:06.357Z,82.53
2018-06-28T12:44:34.734Z,82.60
2018-06-28T12:47:33.796Z,80.87
2018-06-28T12:50:02.127Z,83.30
2018-06-28T12:52:35.789Z,79.77
2018-06-28T12:55:04.932Z,81.37
2018-06-28T12:57:33.321Z,86.17
2018-06-28T13:00:01.668Z,80.40
2018-06-28T13:02:29.939Z,80.30
2018-06-28T13:04:58.708Z,80.50
2018-06-28T13:07:27.034Z,81.17
2018-06-28T13:09:55.364Z,87.50
2018-06-28T13:12:24.093Z,89.77
2018-06-28T13:14:52.480Z,117.47
2018-06-28T13:17:20.937Z,99.17
2018-06-28T13:19:49.245Z,99.47
2018-06-28T13:22:17.533Z,89.47
2018-06-28T13:24:45.883Z,87.80
2018-06-28T13:27:14.084Z,86.90
2018-06-28T13:29:42.439Z,87.47
2018-06-28T13:32:10.719Z,93.10
2018-06-28T13:34:39.768Z,93.37
2018-06-28T13:37:08.115Z,91.03
2018-06-28T13:39:38.219Z,91.40
2018-06-28T13:42:06.534Z,95.43
2018-06-28T13:44:34.799Z,89.37
2018-06-28T13:47:03.124Z,92.50
2018-06-28T13:49:31.396Z,101.07
2018-06-28T13:51:59.724Z,99.17
2018-06-28T13:54:28.087Z,102.80
2018-06-28T13:56:56.336Z,118.33
2018-06-28T13:59:24.634Z,119.40
2018-06-28T14:01:52.948Z,107.57
2018-06-28T14:04:21.277Z,162.00
2018-06-28T14:06:49.711Z,102.70
2018-06-28T14:09:18.027Z,103.37
2018-06-28T14:11:46.314Z,95.63
2018-06-28T14:14:14.690Z,93.60
2018-06-28T14:16:43.012Z,98.03
2018-06-28T14:19:11.309Z,96.27
2018-06-28T14:21:39.675Z,98.57
2018-06-28T14:24:08.547Z,97.20
2018-06-28T14:26:36.866Z,112.07
2018-06-28T14:29:05.956Z,120.00
2018-06-28T14:31:34.764Z,117.17
2018-06-28T14:34:03.049Z,169.87
2018-06-28T14:36:31.357Z,248.53
2018-06-28T14:38:59.625Z,189.80
2018-06-28T14:41:27.948Z,216.10
2018-06-28T14:43:56.357Z,217.53
2018-06-28T14:46:24.613Z,176.73
2018-06-28T14:48:52.889Z,214.07
2018-06-28T14:51:21.143Z,204.10
2018-06-28T14:53:50.254Z,172.40
2018-06-28T14:56:18.532Z,169.50
2018-06-28T14:58:46.791Z,125.17
2018-06-28T15:01:15.097Z,189.30
2018-06-28T15:03:43.364Z,189.97
2018-06-28T15:06:11.693Z,178.53
2018-06-28T15:08:39.960Z,177.60
2018-06-28T15:11:08.204Z,146.30
2018-06-28T15:13:36.514Z,125.47
2018-06-28T15:16:05.013Z,103.73
2018-06-28T15:18:33.294Z,119.20
2018-06-28T15:21:01.602Z,89.37
2018-06-28T15:23:29.897Z,88.40
2018-06-28T15:25:58.243Z,139.10
2018-06-28T15:28:26.610Z,192.37
2018-06-28T15:30:54.917Z,215.63
2018-06-28T15:33:23.207Z,177.93
2018-06-28T15:35:51.453Z,143.20
2018-06-28T15:38:19.762Z,196.03
2018-06-28T15:40:48.182Z,116.50
2018-06-28T15:43:16.479Z,112.97
2018-06-28T15:45:44.859Z,120.63
2018-06-28T15:48:13.076Z,98.50
2018-06-28T15:50:41.430Z,87.37
2018-06-28T15:53:09.729Z,89.17
2018-06-28T15:55:38.010Z,90.27
2018-06-28T15:58:06.271Z,88.23
2018-06-28T16:00:34.639Z,90.27
2018-06-28T16:03:03.067Z,88.27
2018-06-28T16:05:31.362Z,92.03
2018-06-28T16:07:59.644Z,90.70
2018-06-28T16:10:27.953Z,97.47
2018-06-28T16:12:56.225Z,96.77
2018-06-28T16:15:24.548Z,100.20
2018-06-28T16:17:52.794Z,97.97
2018-06-28T16:20:21.140Z,101.23
2018-06-28T16:22:49.463Z,100.83
2018-06-28T16:25:17.745Z,101.30
2018-06-28T16:27:46.009Z,98.67
2018-06-28T16:30:14.345Z,90.03
2018-06-28T16:32:42.619Z,88.67
2018-06-28T16:35:10.833Z,89.10
2018-06-28T16:37:39.125Z,86.97
2018-06-28T16:40:08.216Z,87.20
2018-06-28T16:42:36.436Z,90.23
2018-06-28T16:45:05.448Z,88.70
2018-06-28T16:47:33.777Z,86.97
2018-06-28T16:50:02.018Z,87.40
2018-06-28T16:52:30.293Z,88.67
2018-06-28T16:54:58.582Z,88.60
2018-06-28T16:57:26.918Z,91.10
2018-06-28T16:59:55.168Z,91.13
2018-06-28T17:02:23.428Z,91.77
2018-06-28T17:04:51.753Z,89.87
2018-06-28T17:07:20.024Z,99.77
2018-06-28T17:09:48.429Z,95.10
2018-06-28T17:12:16.783Z,97.10
2018-06-28T17:14:45.044Z,107.60
2018-06-28T17:17:13.332Z,99.10
2018-06-28T17:19:41.600Z,112.80
2018-06-28T17:22:09.879Z,222.10
2018-06-28T17:24:38.861Z,228.13
2018-06-28T17:27:07.275Z,232.93
2018-06-28T17:29:35.462Z,128.07
2018-06-28T17:32:03.761Z,136.13
2018-06-28T17:34:32.021Z,133.07
2018-06-28T17:37:00.429Z,114.03
2018-06-28T17:39:28.704Z,122.33
2018-06-28T17:41:57.033Z,132.50
2018-06-28T17:44:25.321Z,127.47
2018-06-28T17:46:53.628Z,143.47
2018-06-28T17:49:21.936Z,114.07
2018-06-28T17:51:50.243Z,109.10
2018-06-28T17:54:18.488Z,97.80
2018-06-28T17:56:46.785Z,101.07
2018-06-28T17:59:15.091Z,97.30
2018-06-28T18:01:43.460Z,118.03
2018-06-28T18:04:11.793Z,115.23
2018-06-28T18:06:40.078Z,113.30
2018-06-28T18:09:08.969Z,115.63
2018-06-28T18:11:37.819Z,119.53
2018-06-28T18:14:06.164Z,125.03
2018-06-28T18:16:34.510Z,119.83
2018-06-28T18:19:02.821Z,104.43
2018-06-28T18:21:31.102Z,142.07
2018-06-28T18:23:59.340Z,92.70
2018-06-28T18:26:27.661Z,114.97
2018-06-28T18:28:55.942Z,88.50
2018-06-28T18:31:24.243Z,92.80
2018-06-28T18:33:52.506Z,97.30
2018-06-28T18:36:20.777Z,90.40
2018-06-28T18:38:49.019Z,89.23
2018-06-28T18:41:17.331Z,88.77
2018-06-28T18:43:45.742Z,90.87
2018-06-28T18:46:14.020Z,89.80
2018-06-28T18:48:42.465Z,91.10
2018-06-28T18:51:10.790Z,91.10
2018-06-28T18:53:39.088Z,92.27
2018-06-28T18:56:07.398Z,93.97
2018-06-28T18:58:35.661Z,96.10
2018-06-28T19:01:04.024Z,97.67
2018-06-28T19:03:32.368Z,93.77
2018-06-28T19:06:00.640Z,96.13
2018-06-28T19:08:28.958Z,95.97
2018-06-28T19:10:57.952Z,102.87
2018-06-28T19:13:27.278Z,96.83
2018-06-28T19:16:00.907Z,105.27
2018-06-28T19:18:29.264Z,103.47
2018-06-28T19:21:03.019Z,112.27
2018-06-28T19:23:36.615Z,109.17
2018-06-28T19:26:04.990Z,107.27
2018-06-28T19:28:33.297Z,118.70
2018-06-28T19:31:06.958Z,116.00
2018-06-28T19:33:35.261Z,115.07
2018-06-28T19:36:03.600Z,115.90
2018-06-28T19:38:37.395Z,111.57
2018-06-28T19:41:11.079Z,112.30
2018-06-28T19:43:39.357Z,108.20
2018-06-28T19:46:07.641Z,116.13
2018-06-28T19:48:35.937Z,111.67
2018-06-28T19:51:09.514Z,112.70
2018-06-28T19:53:37.800Z,101.60
2018-06-28T19:56:06.219Z,114.83
2018-06-28T19:58:34.557Z,115.07
2018-06-28T20:01:08.241Z,107.73
2018-06-28T20:03:41.904Z,112.90
2018-06-28T20:06:10.218Z,113.50
2018-06-28T20:08:38.501Z,118.37
2018-06-28T20:11:06.789Z,115.47
2018-06-28T20:13:40.572Z,114.67
2018-06-28T20:16:14.194Z,105.57
2018-06-28T20:18:47.735Z,96.53
2018-06-28T20:21:16.002Z,92.77
2018-06-28T20:23:44.297Z,92.70
2018-06-28T20:26:17.803Z,86.63
2018-06-28T20:28:51.417Z,87.27
2018-06-28T20:31:25.081Z,88.53
2018-06-28T20:33:58.687Z,89.90
2018-06-28T20:36:26.931Z,90.47
2018-06-28T20:38:55.219Z,91.73
2018-06-28T20:41:23.501Z,91.40
2018-06-28T20:43:52.450Z,92.20
2018-06-28T20:46:20.768Z,90.53
2018-06-28T20:48:49.048Z,93.10
2018-06-28T20:51:17.347Z,92.33
2018-06-28T20:53:45.643Z,92.37
2018-06-28T20:56:14.010Z,90.50
2018-06-28T20:58:43.959Z,91.23
2018-06-28T21:01:12.315Z,91.47
2018-06-28T21:03:40.648Z,90.90
2018-06-28T21:06:09.012Z,93.00
2018-06-28T21:08:37.444Z,90.87
2018-06-28T21:11:06.339Z,91.00
2018-06-28T21:13:34.638Z,92.00
2018-06-28T21:16:02.890Z,93.87
2018-06-28T21:18:31.251Z,93.50
2018-06-28T21:20:59.504Z,95.20
2018-06-28T21:23:27.786Z,95.17
2018-06-28T21:25:56.145Z,93.80
2018-06-28T21:28:24.409Z,96.40
2018-06-28T21:30:52.717Z,92.70
2018-06-28T21:33:21.036Z,96.17
2018-06-28T21:35:49.326Z,92.03
2018-06-28T21:38:17.581Z,99.30
2018-06-28T21:40:45.887Z,92.10
2018-06-28T21:43:14.180Z,92.53
2018-06-28T21:45:42.422Z,94.20
2018-06-28T21:48:10.741Z,94.80
2018-06-28T21:50:38.991Z,94.77
2018-06-28T21:53:07.420Z,93.10
2018-06-28T21:55:35.793Z,96.07
2018-06-28T21:58:04.088Z,94.17
2018-06-28T22:00:34.091Z,95.57
2018-06-28T22:03:03.777Z,97.73
2018-06-28T22:05:32.666Z,96.53
2018-06-28T22:08:01.347Z,96.77
2018-06-28T22:10:29.525Z,96.53
2018-06-28T22:12:57.876Z,97.03
2018-06-28T22:15:28.144Z,94.90
2018-06-28T22:17:58.543Z,97.97
2018-06-28T22:20:27.895Z,94.10
2018-06-28T22:22:56.197Z,89.87
2018-06-28T22:25:25.904Z,96.50
2018-06-28T22:27:54.236Z,95.07
2018-06-28T22:30:22.963Z,97.10
2018-06-28T22:32:51.392Z,101.93
2018-06-28T22:35:19.679Z,101.57
2018-06-28T22:37:48.294Z,98.67
2018-06-28T22:40:16.690Z,93.87
2018-06-28T22:42:44.994Z,97.00
2018-06-28T22:45:13.308Z,97.30
2018-06-28T22:47:41.585Z,96.10
2018-06-28T22:50:09.898Z,93.37
2018-06-28T22:52:38.219Z,92.27
2018-06-28T22:55:06.613Z,91.93
2018-06-28T22:57:34.959Z,93.87
2018-06-28T23:00:03.289Z,98.07
2018-06-28T23:02:31.600Z,102.80
2018-06-28T23:04:59.921Z,101.53
2018-06-28T23:07:28.237Z,102.23
2018-06-28T23:09:56.567Z,94.17
2018-06-28T23:12:24.920Z,95.57
2018-06-28T23:14:53.268Z,95.10
2018-06-28T23:17:21.565Z,94.43
2018-06-28T23:19:49.851Z,97.10
2018-06-28T23:22:52.390Z,94.57
2018-06-28T23:25:21.146Z,93.17
2018-06-28T23:27:50.046Z,97.17
2018-06-28T23:30:18.745Z,96.10
2018-06-28T23:32:46.992Z,96.10
2018-06-28T23:35:15.379Z,101.90
2018-06-28T23:37:43.980Z,96.03
2018-06-28T23:40:12.284Z,99.10
2018-06-28T23:42:40.756Z,98.57
2018-06-28T23:45:09.723Z,103.67
2018-06-28T23:47:38.033Z,101.37
2018-06-28T23:50:06.840Z,95.53
2018-06-28T23:52:35.180Z,97.27
2018-06-28T23:55:03.532Z,95.07
2018-06-28T23:57:31.876Z,99.47
